sensor_id;sensor_type;location;lat;lon;timestamp;temperature;humidity
40808;DHT22;26523;52.504;13.498;2022-09-28T00:00:37;8.60;99.90
40808;DHT22;26523;52.504;13.498;2022-09-28T00:03:05;8.60;99.90
40808;DHT22;26523;52.504;13.498;2022-09-28T00:05:31;8.60;99.90
40808;DHT22;26523;52.504;13.498;2022-09-28T00:07:57;8.70;99.90
40808;DHT22;26523;52.504;13.498;2022-09-28T00:10:22;8.70;99.90
40808;DHT22;26523;52.504;13.498;2022-09-28T00:12:49;8.70;99.90
40808;DHT22;26523;52.504;13.498;2022-09-28T00:15:15;8.70;99.90
40808;DHT22;26523;52.504;13.498;2022-09-28T00:17:40;8.80;99.90
40808;DHT22;26523;52.504;13.498;2022-09-28T00:20:09;8.80;99.90
40808;DHT22;26523;52.504;13.498;2022-09-28T00:22:35;8.70;99.90
40808;DHT22;26523;52.504;13.498;2022-09-28T00:25:01;8.70;99.90
40808;DHT22;26523;52.504;13.498;2022-09-28T00:27:26;8.80;99.90
40808;DHT22;26523;52.504;13.498;2022-09-28T00:29:52;8.80;99.90
40808;DHT22;26523;52.504;13.498;2022-09-28T00:32:18;8.80;99.90
40808;DHT22;26523;52.504;13.498;2022-09-28T00:34:45;8.80;99.90
40808;DHT22;26523;52.504;13.498;2022-09-28T00:37:13;8.70;99.90
40808;DHT22;26523;52.504;13.498;2022-09-28T00:39:39;8.70;99.90
40808;DHT22;26523;52.504;13.498;2022-09-28T00:42:20;8.70;99.90
40808;DHT22;26523;52.504;13.498;2022-09-28T00:47:38;8.70;99.90
40808;DHT22;26523;52.504;13.498;2022-09-28T00:52:58;8.70;99.90
40808;DHT22;26523;52.504;13.498;2022-09-28T00:55:37;8.70;99.90
40808;DHT22;26523;52.504;13.498;2022-09-28T00:58:06;8.70;99.90
40808;DHT22;26523;52.504;13.498;2022-09-28T01:00:33;8.70;99.90
40808;DHT22;26523;52.504;13.498;2022-09-28T01:02:59;8.70;99.90
40808;DHT22;26523;52.504;13.498;2022-09-28T01:05:25;8.80;99.90
40808;DHT22;26523;52.504;13.498;2022-09-28T01:07:53;8.70;99.90
40808;DHT22;26523;52.504;13.498;2022-09-28T01:10:19;8.80;99.90
40808;DHT22;26523;52.504;13.498;2022-09-28T01:12:45;8.80;99.90
40808;DHT22;26523;52.504;13.498;2022-09-28T01:15:11;8.80;99.90
40808;DHT22;26523;52.504;13.498;2022-09-28T01:23:22;8.90;99.90
40808;DHT22;26523;52.504;13.498;2022-09-28T01:28:46;8.80;99.90
40808;DHT22;26523;52.504;13.498;2022-09-28T01:31:15;8.80;99.90
40808;DHT22;26523;52.504;13.498;2022-09-28T01:33:53;8.90;99.90
40808;DHT22;26523;52.504;13.498;2022-09-28T01:36:40;8.90;99.90
40808;DHT22;26523;52.504;13.498;2022-09-28T01:39:12;8.80;99.90
40808;DHT22;26523;52.504;13.498;2022-09-28T01:41:40;8.80;99.90
40808;DHT22;26523;52.504;13.498;2022-09-28T01:44:11;8.80;99.90
40808;DHT22;26523;52.504;13.498;2022-09-28T01:46:40;8.80;99.90
40808;DHT22;26523;52.504;13.498;2022-09-28T01:49:14;8.80;99.90
40808;DHT22;26523;52.504;13.498;2022-09-28T01:54:53;8.70;99.90
40808;DHT22;26523;52.504;13.498;2022-09-28T01:57:25;8.60;99.90
40808;DHT22;26523;52.504;13.498;2022-09-28T02:00:22;8.60;99.90
40808;DHT22;26523;52.504;13.498;2022-09-28T02:03:04;8.70;99.90
40808;DHT22;26523;52.504;13.498;2022-09-28T02:05:35;8.70;99.90
40808;DHT22;26523;52.504;13.498;2022-09-28T02:10:37;8.70;99.90
40808;DHT22;26523;52.504;13.498;2022-09-28T02:18:58;8.70;99.90
40808;DHT22;26523;52.504;13.498;2022-09-28T02:21:30;8.80;99.90
40808;DHT22;26523;52.504;13.498;2022-09-28T02:24:01;8.80;99.90
40808;DHT22;26523;52.504;13.498;2022-09-28T02:26:31;8.70;99.90
40808;DHT22;26523;52.504;13.498;2022-09-28T02:28:58;8.80;99.90
40808;DHT22;26523;52.504;13.498;2022-09-28T02:31:25;8.80;99.90
40808;DHT22;26523;52.504;13.498;2022-09-28T02:33:52;8.70;99.90
40808;DHT22;26523;52.504;13.498;2022-09-28T02:36:19;8.70;99.90
40808;DHT22;26523;52.504;13.498;2022-09-28T02:38:45;8.70;99.90
40808;DHT22;26523;52.504;13.498;2022-09-28T02:58:55;8.50;99.90
40808;DHT22;26523;52.504;13.498;2022-09-28T03:04:10;8.50;99.90
40808;DHT22;26523;52.504;13.498;2022-09-28T03:07:04;8.50;99.90
40808;DHT22;26523;52.504;13.498;2022-09-28T03:09:59;8.40;99.90
40808;DHT22;26523;52.504;13.498;2022-09-28T03:12:26;8.30;99.90
40808;DHT22;26523;52.504;13.498;2022-09-28T03:15:13;8.30;99.90
40808;DHT22;26523;52.504;13.498;2022-09-28T03:17:44;8.20;99.90
40808;DHT22;26523;52.504;13.498;2022-09-28T03:20:10;8.20;99.90
40808;DHT22;26523;52.504;13.498;2022-09-28T03:22:36;8.20;99.90
40808;DHT22;26523;52.504;13.498;2022-09-28T03:25:03;8.20;99.90
40808;DHT22;26523;52.504;13.498;2022-09-28T03:27:29;8.30;99.90
40808;DHT22;26523;52.504;13.498;2022-09-28T03:29:55;8.20;99.90
40808;DHT22;26523;52.504;13.498;2022-09-28T03:32:20;8.10;99.90
40808;DHT22;26523;52.504;13.498;2022-09-28T03:34:46;8.20;99.90
40808;DHT22;26523;52.504;13.498;2022-09-28T03:37:11;8.20;99.90
40808;DHT22;26523;52.504;13.498;2022-09-28T03:39:37;8.10;99.90
40808;DHT22;26523;52.504;13.498;2022-09-28T03:42:03;8.10;99.90
40808;DHT22;26523;52.504;13.498;2022-09-28T03:44:28;8.10;99.90
40808;DHT22;26523;52.504;13.498;2022-09-28T03:46:54;8.10;99.90
40808;DHT22;26523;52.504;13.498;2022-09-28T03:49:19;8.10;99.90
40808;DHT22;26523;52.504;13.498;2022-09-28T03:51:45;8.10;99.90
40808;DHT22;26523;52.504;13.498;2022-09-28T03:54:11;8.10;99.90
40808;DHT22;26523;52.504;13.498;2022-09-28T03:56:37;8.10;99.90
40808;DHT22;26523;52.504;13.498;2022-09-28T03:59:03;7.90;99.90
40808;DHT22;26523;52.504;13.498;2022-09-28T04:01:29;8.00;99.90
40808;DHT22;26523;52.504;13.498;2022-09-28T04:03:55;7.90;99.90
40808;DHT22;26523;52.504;13.498;2022-09-28T04:06:21;7.80;99.90
40808;DHT22;26523;52.504;13.498;2022-09-28T04:08:47;7.80;99.90
40808;DHT22;26523;52.504;13.498;2022-09-28T04:11:13;7.80;99.90
40808;DHT22;26523;52.504;13.498;2022-09-28T04:13:38;7.80;99.90
40808;DHT22;26523;52.504;13.498;2022-09-28T04:16:04;7.90;99.90
40808;DHT22;26523;52.504;13.498;2022-09-28T04:18:31;7.90;99.90
40808;DHT22;26523;52.504;13.498;2022-09-28T04:21:05;7.90;99.90
40808;DHT22;26523;52.504;13.498;2022-09-28T04:23:32;7.90;99.90
40808;DHT22;26523;52.504;13.498;2022-09-28T04:25:58;7.90;99.90
40808;DHT22;26523;52.504;13.498;2022-09-28T04:28:25;7.90;99.90
40808;DHT22;26523;52.504;13.498;2022-09-28T04:31:17;7.80;99.90
40808;DHT22;26523;52.504;13.498;2022-09-28T04:33:43;7.70;99.90
40808;DHT22;26523;52.504;13.498;2022-09-28T04:36:09;7.70;99.90
40808;DHT22;26523;52.504;13.498;2022-09-28T04:38:38;7.60;99.90
40808;DHT22;26523;52.504;13.498;2022-09-28T04:41:05;7.70;99.90
40808;DHT22;26523;52.504;13.498;2022-09-28T04:43:32;7.80;99.90
40808;DHT22;26523;52.504;13.498;2022-09-28T04:46:01;7.90;99.90
40808;DHT22;26523;52.504;13.498;2022-09-28T04:48:27;8.00;99.90
40808;DHT22;26523;52.504;13.498;2022-09-28T04:50:57;8.10;99.90
40808;DHT22;26523;52.504;13.498;2022-09-28T04:53:25;8.20;99.90
40808;DHT22;26523;52.504;13.498;2022-09-28T04:55:58;8.20;99.90
40808;DHT22;26523;52.504;13.498;2022-09-28T04:58:24;8.30;99.90
40808;DHT22;26523;52.504;13.498;2022-09-28T05:00:50;8.30;99.90
40808;DHT22;26523;52.504;13.498;2022-09-28T05:03:19;8.30;99.90
40808;DHT22;26523;52.504;13.498;2022-09-28T05:05:46;8.40;99.90
40808;DHT22;26523;52.504;13.498;2022-09-28T05:08:13;8.40;99.90
40808;DHT22;26523;52.504;13.498;2022-09-28T05:10:39;8.40;99.90
40808;DHT22;26523;52.504;13.498;2022-09-28T05:13:09;8.50;99.90
40808;DHT22;26523;52.504;13.498;2022-09-28T05:15:35;8.50;99.90
40808;DHT22;26523;52.504;13.498;2022-09-28T05:18:01;8.60;99.90
40808;DHT22;26523;52.504;13.498;2022-09-28T05:20:27;8.60;99.90
40808;DHT22;26523;52.504;13.498;2022-09-28T05:22:53;8.60;99.90
40808;DHT22;26523;52.504;13.498;2022-09-28T05:25:19;8.60;99.90
40808;DHT22;26523;52.504;13.498;2022-09-28T05:27:44;8.70;99.90
40808;DHT22;26523;52.504;13.498;2022-09-28T05:30:10;8.70;99.90
40808;DHT22;26523;52.504;13.498;2022-09-28T05:32:40;8.70;99.90
40808;DHT22;26523;52.504;13.498;2022-09-28T05:35:06;8.70;99.90
40808;DHT22;26523;52.504;13.498;2022-09-28T05:37:32;8.70;99.90
40808;DHT22;26523;52.504;13.498;2022-09-28T05:39:58;8.70;99.90
40808;DHT22;26523;52.504;13.498;2022-09-28T05:42:24;8.70;99.90
40808;DHT22;26523;52.504;13.498;2022-09-28T05:44:49;8.80;99.90
40808;DHT22;26523;52.504;13.498;2022-09-28T05:47:15;8.70;99.90
40808;DHT22;26523;52.504;13.498;2022-09-28T05:49:41;8.70;99.90
40808;DHT22;26523;52.504;13.498;2022-09-28T05:52:07;8.70;99.90
40808;DHT22;26523;52.504;13.498;2022-09-28T05:54:32;8.80;99.90
40808;DHT22;26523;52.504;13.498;2022-09-28T05:56:58;8.80;99.90
40808;DHT22;26523;52.504;13.498;2022-09-28T05:59:23;8.80;99.90
40808;DHT22;26523;52.504;13.498;2022-09-28T06:01:49;8.80;99.90
40808;DHT22;26523;52.504;13.498;2022-09-28T06:04:15;8.90;99.90
40808;DHT22;26523;52.504;13.498;2022-09-28T06:06:41;8.90;99.90
40808;DHT22;26523;52.504;13.498;2022-09-28T06:09:07;9.00;99.90
40808;DHT22;26523;52.504;13.498;2022-09-28T06:11:33;9.20;99.90
40808;DHT22;26523;52.504;13.498;2022-09-28T06:13:58;9.40;99.90
40808;DHT22;26523;52.504;13.498;2022-09-28T06:16:24;9.60;99.90
40808;DHT22;26523;52.504;13.498;2022-09-28T06:18:50;9.70;99.90
40808;DHT22;26523;52.504;13.498;2022-09-28T06:21:15;9.80;99.90
40808;DHT22;26523;52.504;13.498;2022-09-28T06:23:41;9.90;99.90
40808;DHT22;26523;52.504;13.498;2022-09-28T06:26:07;9.90;99.90
40808;DHT22;26523;52.504;13.498;2022-09-28T06:28:32;9.80;99.90
40808;DHT22;26523;52.504;13.498;2022-09-28T06:30:59;9.90;99.90
40808;DHT22;26523;52.504;13.498;2022-09-28T06:33:25;9.90;99.90
40808;DHT22;26523;52.504;13.498;2022-09-28T06:35:51;9.80;99.90
40808;DHT22;26523;52.504;13.498;2022-09-28T06:38:17;9.80;99.90
40808;DHT22;26523;52.504;13.498;2022-09-28T06:40:43;9.80;99.90
40808;DHT22;26523;52.504;13.498;2022-09-28T06:43:11;9.80;99.90
40808;DHT22;26523;52.504;13.498;2022-09-28T06:45:37;9.80;99.90
40808;DHT22;26523;52.504;13.498;2022-09-28T06:48:04;9.80;99.90
40808;DHT22;26523;52.504;13.498;2022-09-28T06:50:35;9.90;99.90
40808;DHT22;26523;52.504;13.498;2022-09-28T06:53:02;9.90;99.90
40808;DHT22;26523;52.504;13.498;2022-09-28T06:55:29;9.80;99.90
40808;DHT22;26523;52.504;13.498;2022-09-28T06:58:05;10.00;99.90
40808;DHT22;26523;52.504;13.498;2022-09-28T07:00:34;10.00;99.90
40808;DHT22;26523;52.504;13.498;2022-09-28T07:03:05;10.00;99.90
40808;DHT22;26523;52.504;13.498;2022-09-28T07:05:33;10.10;99.90
40808;DHT22;26523;52.504;13.498;2022-09-28T07:07:59;10.10;99.90
40808;DHT22;26523;52.504;13.498;2022-09-28T07:10:27;10.10;99.90
40808;DHT22;26523;52.504;13.498;2022-09-28T07:12:53;10.20;99.90
40808;DHT22;26523;52.504;13.498;2022-09-28T07:15:20;10.30;99.90
40808;DHT22;26523;52.504;13.498;2022-09-28T07:17:45;10.50;99.90
40808;DHT22;26523;52.504;13.498;2022-09-28T07:20:12;10.60;99.90
40808;DHT22;26523;52.504;13.498;2022-09-28T07:22:38;10.70;99.90
40808;DHT22;26523;52.504;13.498;2022-09-28T07:25:07;10.90;99.90
40808;DHT22;26523;52.504;13.498;2022-09-28T07:27:33;11.10;99.90
40808;DHT22;26523;52.504;13.498;2022-09-28T07:30:02;11.20;99.90
40808;DHT22;26523;52.504;13.498;2022-09-28T07:32:28;11.30;99.90
40808;DHT22;26523;52.504;13.498;2022-09-28T07:34:54;11.30;99.90
40808;DHT22;26523;52.504;13.498;2022-09-28T07:37:20;11.30;99.90
40808;DHT22;26523;52.504;13.498;2022-09-28T07:39:48;11.40;99.90
40808;DHT22;26523;52.504;13.498;2022-09-28T07:42:32;11.40;99.90
40808;DHT22;26523;52.504;13.498;2022-09-28T07:44:58;11.50;99.90
40808;DHT22;26523;52.504;13.498;2022-09-28T07:47:24;11.50;99.90
40808;DHT22;26523;52.504;13.498;2022-09-28T07:49:54;11.60;99.90
40808;DHT22;26523;52.504;13.498;2022-09-28T07:52:23;11.80;99.90
40808;DHT22;26523;52.504;13.498;2022-09-28T07:54:51;12.00;99.90
40808;DHT22;26523;52.504;13.498;2022-09-28T07:57:19;12.60;99.90
40808;DHT22;26523;52.504;13.498;2022-09-28T07:59:44;13.00;99.90
40808;DHT22;26523;52.504;13.498;2022-09-28T08:02:11;14.00;99.90
40808;DHT22;26523;52.504;13.498;2022-09-28T08:04:37;15.30;99.90
40808;DHT22;26523;52.504;13.498;2022-09-28T08:07:06;15.70;99.90
40808;DHT22;26523;52.504;13.498;2022-09-28T08:09:33;16.10;99.90
40808;DHT22;26523;52.504;13.498;2022-09-28T08:11:59;15.90;99.90
40808;DHT22;26523;52.504;13.498;2022-09-28T08:14:25;15.90;99.90
40808;DHT22;26523;52.504;13.498;2022-09-28T08:16:51;15.60;99.90
40808;DHT22;26523;52.504;13.498;2022-09-28T08:19:17;15.50;99.90
40808;DHT22;26523;52.504;13.498;2022-09-28T08:21:43;14.90;99.90
40808;DHT22;26523;52.504;13.498;2022-09-28T08:24:12;14.60;99.90
40808;DHT22;26523;52.504;13.498;2022-09-28T08:26:38;14.40;99.90
40808;DHT22;26523;52.504;13.498;2022-09-28T08:29:03;14.30;99.90
40808;DHT22;26523;52.504;13.498;2022-09-28T08:31:29;14.10;99.90
40808;DHT22;26523;52.504;13.498;2022-09-28T08:33:56;14.00;99.90
40808;DHT22;26523;52.504;13.498;2022-09-28T08:36:21;13.90;99.90
40808;DHT22;26523;52.504;13.498;2022-09-28T08:38:48;13.80;99.90
40808;DHT22;26523;52.504;13.498;2022-09-28T08:44:15;13.60;99.90
40808;DHT22;26523;52.504;13.498;2022-09-28T08:46:49;13.50;99.90
40808;DHT22;26523;52.504;13.498;2022-09-28T08:49:38;13.50;99.90
40808;DHT22;26523;52.504;13.498;2022-09-28T08:52:22;13.40;99.90
40808;DHT22;26523;52.504;13.498;2022-09-28T08:57:36;13.30;99.90
40808;DHT22;26523;52.504;13.498;2022-09-28T09:00:04;13.40;99.90
40808;DHT22;26523;52.504;13.498;2022-09-28T09:02:34;13.40;99.90
40808;DHT22;26523;52.504;13.498;2022-09-28T09:05:06;13.50;99.90
40808;DHT22;26523;52.504;13.498;2022-09-28T09:18:54;13.70;99.90
40808;DHT22;26523;52.504;13.498;2022-09-28T09:21:46;13.70;99.90
40808;DHT22;26523;52.504;13.498;2022-09-28T09:24:44;13.80;99.90
40808;DHT22;26523;52.504;13.498;2022-09-28T09:29:51;13.80;99.90
40808;DHT22;26523;52.504;13.498;2022-09-28T09:32:45;13.80;99.90
40808;DHT22;26523;52.504;13.498;2022-09-28T09:38:14;13.50;99.90
40808;DHT22;26523;52.504;13.498;2022-09-28T09:41:19;13.40;99.90
40808;DHT22;26523;52.504;13.498;2022-09-28T09:49:30;13.70;99.90
40808;DHT22;26523;52.504;13.498;2022-09-28T09:52:13;13.80;99.90
40808;DHT22;26523;52.504;13.498;2022-09-28T09:55:02;13.90;99.90
40808;DHT22;26523;52.504;13.498;2022-09-28T09:57:33;14.00;99.90
40808;DHT22;26523;52.504;13.498;2022-09-28T10:00:02;14.10;99.90
40808;DHT22;26523;52.504;13.498;2022-09-28T10:02:30;14.20;99.90
40808;DHT22;26523;52.504;13.498;2022-09-28T10:05:05;14.40;99.90
40808;DHT22;26523;52.504;13.498;2022-09-28T10:07:53;14.70;99.90
40808;DHT22;26523;52.504;13.498;2022-09-28T10:10:32;15.00;99.90
40808;DHT22;26523;52.504;13.498;2022-09-28T10:12:59;15.20;99.90
40808;DHT22;26523;52.504;13.498;2022-09-28T10:15:27;15.10;99.90
40808;DHT22;26523;52.504;13.498;2022-09-28T10:17:56;15.30;99.90
40808;DHT22;26523;52.504;13.498;2022-09-28T10:20:23;15.20;99.90
40808;DHT22;26523;52.504;13.498;2022-09-28T10:22:55;15.30;99.90
40808;DHT22;26523;52.504;13.498;2022-09-28T10:25:22;15.50;99.90
40808;DHT22;26523;52.504;13.498;2022-09-28T10:27:49;15.40;99.90
40808;DHT22;26523;52.504;13.498;2022-09-28T10:30:21;15.40;99.90
40808;DHT22;26523;52.504;13.498;2022-09-28T10:32:50;15.40;99.90
40808;DHT22;26523;52.504;13.498;2022-09-28T10:35:25;15.20;99.90
40808;DHT22;26523;52.504;13.498;2022-09-28T10:37:58;15.30;99.90
40808;DHT22;26523;52.504;13.498;2022-09-28T10:46:08;15.10;99.90
40808;DHT22;26523;52.504;13.498;2022-09-28T10:49:05;14.90;99.90
40808;DHT22;26523;52.504;13.498;2022-09-28T10:51:47;14.80;99.90
40808;DHT22;26523;52.504;13.498;2022-09-28T10:54:19;14.90;99.90
40808;DHT22;26523;52.504;13.498;2022-09-28T10:56:45;15.00;99.90
40808;DHT22;26523;52.504;13.498;2022-09-28T11:01:58;15.40;99.90
40808;DHT22;26523;52.504;13.498;2022-09-28T11:04:29;15.50;99.90
40808;DHT22;26523;52.504;13.498;2022-09-28T11:06:58;15.50;99.90
40808;DHT22;26523;52.504;13.498;2022-09-28T11:09:28;15.20;99.90
40808;DHT22;26523;52.504;13.498;2022-09-28T11:11:55;14.90;99.90
40808;DHT22;26523;52.504;13.498;2022-09-28T11:19:49;14.30;99.90
40808;DHT22;26523;52.504;13.498;2022-09-28T11:22:26;14.20;99.90
40808;DHT22;26523;52.504;13.498;2022-09-28T11:25:17;14.10;99.90
40808;DHT22;26523;52.504;13.498;2022-09-28T11:33:17;13.90;99.90
40808;DHT22;26523;52.504;13.498;2022-09-28T11:36:00;13.90;99.90
40808;DHT22;26523;52.504;13.498;2022-09-28T11:38:38;13.80;99.90
40808;DHT22;26523;52.504;13.498;2022-09-28T11:49:43;13.70;99.90
40808;DHT22;26523;52.504;13.498;2022-09-28T11:52:26;13.70;99.90
40808;DHT22;26523;52.504;13.498;2022-09-28T11:55:13;13.80;99.90
40808;DHT22;26523;52.504;13.498;2022-09-28T11:57:45;13.80;99.90
40808;DHT22;26523;52.504;13.498;2022-09-28T12:00:19;13.80;99.90
40808;DHT22;26523;52.504;13.498;2022-09-28T12:03:03;13.70;99.90
40808;DHT22;26523;52.504;13.498;2022-09-28T12:05:51;13.60;99.90
40808;DHT22;26523;52.504;13.498;2022-09-28T12:08:27;13.60;99.90
40808;DHT22;26523;52.504;13.498;2022-09-28T12:10:59;13.50;99.90
40808;DHT22;26523;52.504;13.498;2022-09-28T12:13:28;13.50;99.90
40808;DHT22;26523;52.504;13.498;2022-09-28T12:16:07;13.50;99.90
40808;DHT22;26523;52.504;13.498;2022-09-28T12:18:49;13.50;99.90
40808;DHT22;26523;52.504;13.498;2022-09-28T12:21:35;13.70;99.90
40808;DHT22;26523;52.504;13.498;2022-09-28T12:27:02;13.70;99.90
40808;DHT22;26523;52.504;13.498;2022-09-28T12:32:23;13.60;99.90
40808;DHT22;26523;52.504;13.498;2022-09-28T12:34:51;13.60;99.90
40808;DHT22;26523;52.504;13.498;2022-09-28T12:40:40;13.60;99.90
40808;DHT22;26523;52.504;13.498;2022-09-28T12:46:22;13.90;99.90
40808;DHT22;26523;52.504;13.498;2022-09-28T12:51:50;14.20;99.90
40808;DHT22;26523;52.504;13.498;2022-09-28T13:00:09;14.10;99.90
40808;DHT22;26523;52.504;13.498;2022-09-28T13:10:28;14.00;99.90
40808;DHT22;26523;52.504;13.498;2022-09-28T13:13:28;13.90;99.90
40808;DHT22;26523;52.504;13.498;2022-09-28T13:16:14;13.90;99.90
40808;DHT22;26523;52.504;13.498;2022-09-28T13:18:56;13.80;99.90
40808;DHT22;26523;52.504;13.498;2022-09-28T13:21:45;13.90;99.90
40808;DHT22;26523;52.504;13.498;2022-09-28T13:24:20;13.90;99.90
40808;DHT22;26523;52.504;13.498;2022-09-28T13:26:51;13.80;99.90
40808;DHT22;26523;52.504;13.498;2022-09-28T13:29:18;13.60;99.90
40808;DHT22;26523;52.504;13.498;2022-09-28T13:31:53;13.60;99.90
40808;DHT22;26523;52.504;13.498;2022-09-28T13:34:24;13.70;99.90
40808;DHT22;26523;52.504;13.498;2022-09-28T13:37:16;13.60;99.90
40808;DHT22;26523;52.504;13.498;2022-09-28T13:56:33;13.40;99.90
40808;DHT22;26523;52.504;13.498;2022-09-28T13:59:08;13.40;99.90
40808;DHT22;26523;52.504;13.498;2022-09-28T14:01:53;13.40;99.90
40808;DHT22;26523;52.504;13.498;2022-09-28T14:04:26;13.40;99.90
40808;DHT22;26523;52.504;13.498;2022-09-28T14:10:22;13.50;99.90
40808;DHT22;26523;52.504;13.498;2022-09-28T14:12:51;13.60;99.90
40808;DHT22;26523;52.504;13.498;2022-09-28T14:18:26;13.70;99.90
40808;DHT22;26523;52.504;13.498;2022-09-28T14:21:18;13.70;99.90
40808;DHT22;26523;52.504;13.498;2022-09-28T14:27:05;13.70;99.90
40808;DHT22;26523;52.504;13.498;2022-09-28T14:29:36;13.70;99.90
40808;DHT22;26523;52.504;13.498;2022-09-28T14:34:39;13.60;99.90
40808;DHT22;26523;52.504;13.498;2022-09-28T14:37:21;13.50;99.90
40808;DHT22;26523;52.504;13.498;2022-09-28T14:40:30;13.50;99.90
40808;DHT22;26523;52.504;13.498;2022-09-28T14:48:47;13.40;99.90
40808;DHT22;26523;52.504;13.498;2022-09-28T14:56:39;13.50;99.90
40808;DHT22;26523;52.504;13.498;2022-09-28T14:59:18;13.50;99.90
40808;DHT22;26523;52.504;13.498;2022-09-28T15:01:51;13.60;99.90
40808;DHT22;26523;52.504;13.498;2022-09-28T15:04:18;13.60;99.90
40808;DHT22;26523;52.504;13.498;2022-09-28T15:06:49;13.60;99.90
40808;DHT22;26523;52.504;13.498;2022-09-28T15:09:32;13.50;99.90
40808;DHT22;26523;52.504;13.498;2022-09-28T15:14:29;13.50;99.90
40808;DHT22;26523;52.504;13.498;2022-09-28T15:17:00;13.50;99.90
40808;DHT22;26523;52.504;13.498;2022-09-28T15:22:18;13.40;99.90
40808;DHT22;26523;52.504;13.498;2022-09-28T15:24:58;13.30;99.90
40808;DHT22;26523;52.504;13.498;2022-09-28T15:27:25;13.20;99.90
40808;DHT22;26523;52.504;13.498;2022-09-28T15:29:59;13.20;99.90
40808;DHT22;26523;52.504;13.498;2022-09-28T15:32:26;13.10;99.90
40808;DHT22;26523;52.504;13.498;2022-09-28T15:34:53;13.10;99.90
40808;DHT22;26523;52.504;13.498;2022-09-28T15:39:49;13.00;99.90
40808;DHT22;26523;52.504;13.498;2022-09-28T15:42:16;13.00;99.90
40808;DHT22;26523;52.504;13.498;2022-09-28T15:45:04;12.90;99.90
40808;DHT22;26523;52.504;13.498;2022-09-28T15:47:40;12.80;99.90
40808;DHT22;26523;52.504;13.498;2022-09-28T15:52:59;12.60;99.90
40808;DHT22;26523;52.504;13.498;2022-09-28T15:55:38;12.50;99.90
40808;DHT22;26523;52.504;13.498;2022-09-28T15:58:15;12.40;99.90
40808;DHT22;26523;52.504;13.498;2022-09-28T16:00:42;12.30;99.90
40808;DHT22;26523;52.504;13.498;2022-09-28T16:05:50;12.00;99.90
40808;DHT22;26523;52.504;13.498;2022-09-28T16:08:21;11.90;99.90
40808;DHT22;26523;52.504;13.498;2022-09-28T16:16:14;11.50;99.90
40808;DHT22;26523;52.504;13.498;2022-09-28T16:18:46;11.50;99.90
40808;DHT22;26523;52.504;13.498;2022-09-28T16:21:30;11.50;99.90
40808;DHT22;26523;52.504;13.498;2022-09-28T16:24:00;11.40;99.90
40808;DHT22;26523;52.504;13.498;2022-09-28T16:26:36;11.20;99.90
40808;DHT22;26523;52.504;13.498;2022-09-28T16:29:25;11.00;99.90
40808;DHT22;26523;52.504;13.498;2022-09-28T16:31:51;10.80;99.90
40808;DHT22;26523;52.504;13.498;2022-09-28T16:34:24;10.60;99.90
40808;DHT22;26523;52.504;13.498;2022-09-28T16:36:51;10.50;99.90
40808;DHT22;26523;52.504;13.498;2022-09-28T16:39:17;10.50;99.90
40808;DHT22;26523;52.504;13.498;2022-09-28T16:41:54;10.50;99.90
40808;DHT22;26523;52.504;13.498;2022-09-28T16:44:26;10.40;99.90
40808;DHT22;26523;52.504;13.498;2022-09-28T16:46:57;10.30;99.90
40808;DHT22;26523;52.504;13.498;2022-09-28T16:49:24;10.40;99.90
40808;DHT22;26523;52.504;13.498;2022-09-28T16:51:51;10.30;99.90
40808;DHT22;26523;52.504;13.498;2022-09-28T16:54:19;10.30;99.90
40808;DHT22;26523;52.504;13.498;2022-09-28T16:57:04;10.30;99.90
40808;DHT22;26523;52.504;13.498;2022-09-28T16:59:30;10.30;99.90
40808;DHT22;26523;52.504;13.498;2022-09-28T17:01:56;10.30;99.90
40808;DHT22;26523;52.504;13.498;2022-09-28T17:04:23;10.30;99.90
40808;DHT22;26523;52.504;13.498;2022-09-28T17:06:53;10.30;99.90
40808;DHT22;26523;52.504;13.498;2022-09-28T17:09:20;10.30;99.90
40808;DHT22;26523;52.504;13.498;2022-09-28T17:11:47;10.30;99.90
40808;DHT22;26523;52.504;13.498;2022-09-28T17:14:12;10.30;99.90
40808;DHT22;26523;52.504;13.498;2022-09-28T17:16:39;10.30;99.90
40808;DHT22;26523;52.504;13.498;2022-09-28T17:21:43;10.20;99.90
40808;DHT22;26523;52.504;13.498;2022-09-28T17:24:09;10.10;99.90
40808;DHT22;26523;52.504;13.498;2022-09-28T17:26:34;10.10;99.90
40808;DHT22;26523;52.504;13.498;2022-09-28T17:29:01;10.20;99.90
40808;DHT22;26523;52.504;13.498;2022-09-28T17:31:28;10.20;99.90
40808;DHT22;26523;52.504;13.498;2022-09-28T17:33:54;10.20;99.90
40808;DHT22;26523;52.504;13.498;2022-09-28T17:36:20;10.10;99.90
40808;DHT22;26523;52.504;13.498;2022-09-28T17:38:46;10.10;99.90
40808;DHT22;26523;52.504;13.498;2022-09-28T17:41:14;10.10;99.90
40808;DHT22;26523;52.504;13.498;2022-09-28T17:43:40;10.10;99.90
40808;DHT22;26523;52.504;13.498;2022-09-28T17:48:41;10.20;99.90
40808;DHT22;26523;52.504;13.498;2022-09-28T17:51:11;10.10;99.90
40808;DHT22;26523;52.504;13.498;2022-09-28T17:53:37;10.00;99.90
40808;DHT22;26523;52.504;13.498;2022-09-28T17:56:02;10.00;99.90
40808;DHT22;26523;52.504;13.498;2022-09-28T17:58:28;10.00;99.90
40808;DHT22;26523;52.504;13.498;2022-09-28T18:00:54;10.00;99.90
40808;DHT22;26523;52.504;13.498;2022-09-28T18:03:21;10.00;99.90
40808;DHT22;26523;52.504;13.498;2022-09-28T18:05:49;10.00;99.90
40808;DHT22;26523;52.504;13.498;2022-09-28T18:08:19;9.90;99.90
40808;DHT22;26523;52.504;13.498;2022-09-28T18:10:45;10.00;99.90
40808;DHT22;26523;52.504;13.498;2022-09-28T18:13:11;9.90;99.90
40808;DHT22;26523;52.504;13.498;2022-09-28T18:15:37;9.80;99.90
40808;DHT22;26523;52.504;13.498;2022-09-28T18:18:03;9.70;99.90
40808;DHT22;26523;52.504;13.498;2022-09-28T18:20:29;9.70;99.90
40808;DHT22;26523;52.504;13.498;2022-09-28T18:22:55;9.70;99.90
40808;DHT22;26523;52.504;13.498;2022-09-28T18:25:21;9.60;99.90
40808;DHT22;26523;52.504;13.498;2022-09-28T18:27:46;9.50;99.90
40808;DHT22;26523;52.504;13.498;2022-09-28T18:30:12;9.50;99.90
40808;DHT22;26523;52.504;13.498;2022-09-28T18:32:38;9.50;99.90
40808;DHT22;26523;52.504;13.498;2022-09-28T18:35:05;9.50;99.90
40808;DHT22;26523;52.504;13.498;2022-09-28T18:37:35;9.50;99.90
40808;DHT22;26523;52.504;13.498;2022-09-28T18:40:01;9.40;99.90
40808;DHT22;26523;52.504;13.498;2022-09-28T18:42:27;9.40;99.90
40808;DHT22;26523;52.504;13.498;2022-09-28T18:44:53;9.40;99.90
40808;DHT22;26523;52.504;13.498;2022-09-28T18:47:18;9.40;99.90
40808;DHT22;26523;52.504;13.498;2022-09-28T18:49:44;9.40;99.90
40808;DHT22;26523;52.504;13.498;2022-09-28T18:52:09;9.20;99.90
40808;DHT22;26523;52.504;13.498;2022-09-28T18:54:35;9.10;99.90
40808;DHT22;26523;52.504;13.498;2022-09-28T18:57:01;9.00;99.90